sensor_id;sensor_type;location;lat;lon;timestamp;P1;durP1;ratioP1;P2;durP2;ratioP2
31978;SDS011;18502;43.574;1.276;2023-07-08T00:01:23;8.65;;;3.53;;
31978;SDS011;18502;43.574;1.276;2023-07-08T00:03:49;7.47;;;2.60;;
31978;SDS011;18502;43.574;1.276;2023-07-08T00:06:18;8.25;;;2.80;;
31978;SDS011;18502;43.574;1.276;2023-07-08T00:08:46;9.10;;;3.38;;
31978;SDS011;18502;43.574;1.276;2023-07-08T00:11:12;4.60;;;2.80;;
31978;SDS011;18502;43.574;1.276;2023-07-08T00:13:39;5.38;;;3.08;;
31978;SDS011;18502;43.574;1.276;2023-07-08T00:16:10;6.85;;;2.72;;
31978;SDS011;18502;43.574;1.276;2023-07-08T00:18:37;6.47;;;2.72;;
31978;SDS011;18502;43.574;1.276;2023-07-08T00:21:04;7.60;;;3.10;;
31978;SDS011;18502;43.574;1.276;2023-07-08T00:23:33;6.88;;;3.17;;
31978;SDS011;18502;43.574;1.276;2023-07-08T00:26:01;5.97;;;3.40;;
31978;SDS011;18502;43.574;1.276;2023-07-08T00:28:27;6.60;;;3.80;;
31978;SDS011;18502;43.574;1.276;2023-07-08T00:30:52;7.90;;;3.35;;
31978;SDS011;18502;43.574;1.276;2023-07-08T00:33:19;5.97;;;3.40;;
31978;SDS011;18502;43.574;1.276;2023-07-08T00:35:45;5.95;;;3.65;;
31978;SDS011;18502;43.574;1.276;2023-07-08T00:40:50;5.85;;;3.70;;
31978;SDS011;18502;43.574;1.276;2023-07-08T00:43:19;6.00;;;3.67;;
31978;SDS011;18502;43.574;1.276;2023-07-08T00:45:50;6.90;;;4.13;;
31978;SDS011;18502;43.574;1.276;2023-07-08T00:48:24;9.48;;;3.92;;
31978;SDS011;18502;43.574;1.276;2023-07-08T00:50:53;9.45;;;4.03;;
31978;SDS011;18502;43.574;1.276;2023-07-08T00:53:32;8.00;;;4.15;;
31978;SDS011;18502;43.574;1.276;2023-07-08T00:56:02;7.38;;;4.05;;
31978;SDS011;18502;43.574;1.276;2023-07-08T00:58:48;6.57;;;4.13;;
31978;SDS011;18502;43.574;1.276;2023-07-08T01:01:28;9.57;;;4.45;;
31978;SDS011;18502;43.574;1.276;2023-07-08T01:04:00;12.00;;;4.80;;
31978;SDS011;18502;43.574;1.276;2023-07-08T01:06:39;6.88;;;4.40;;
31978;SDS011;18502;43.574;1.276;2023-07-08T01:09:08;7.15;;;4.75;;
31978;SDS011;18502;43.574;1.276;2023-07-08T01:11:37;9.52;;;4.32;;
31978;SDS011;18502;43.574;1.276;2023-07-08T01:14:05;10.35;;;5.18;;
31978;SDS011;18502;43.574;1.276;2023-07-08T01:16:33;7.95;;;4.20;;
31978;SDS011;18502;43.574;1.276;2023-07-08T01:19:00;7.35;;;4.25;;
31978;SDS011;18502;43.574;1.276;2023-07-08T01:21:46;7.88;;;4.45;;
31978;SDS011;18502;43.574;1.276;2023-07-08T01:24:33;7.68;;;4.28;;
31978;SDS011;18502;43.574;1.276;2023-07-08T01:27:01;7.97;;;4.22;;
31978;SDS011;18502;43.574;1.276;2023-07-08T01:29:30;11.35;;;4.65;;
31978;SDS011;18502;43.574;1.276;2023-07-08T01:31:57;7.60;;;5.28;;
31978;SDS011;18502;43.574;1.276;2023-07-08T01:34:23;12.02;;;5.10;;
31978;SDS011;18502;43.574;1.276;2023-07-08T01:36:51;9.95;;;5.55;;
31978;SDS011;18502;43.574;1.276;2023-07-08T01:39:20;9.67;;;5.63;;
31978;SDS011;18502;43.574;1.276;2023-07-08T01:41:47;16.52;;;6.78;;
31978;SDS011;18502;43.574;1.276;2023-07-08T01:47:09;11.05;;;5.07;;
31978;SDS011;18502;43.574;1.276;2023-07-08T01:49:40;13.10;;;6.25;;
31978;SDS011;18502;43.574;1.276;2023-07-08T01:52:08;9.88;;;5.03;;
31978;SDS011;18502;43.574;1.276;2023-07-08T01:54:35;11.05;;;5.85;;
31978;SDS011;18502;43.574;1.276;2023-07-08T01:57:00;13.75;;;6.25;;
31978;SDS011;18502;43.574;1.276;2023-07-08T01:59:27;8.07;;;5.72;;
31978;SDS011;18502;43.574;1.276;2023-07-08T02:01:53;10.48;;;5.90;;
31978;SDS011;18502;43.574;1.276;2023-07-08T02:04:24;10.38;;;5.32;;
31978;SDS011;18502;43.574;1.276;2023-07-08T02:06:51;11.48;;;5.50;;
31978;SDS011;18502;43.574;1.276;2023-07-08T02:09:18;10.23;;;5.28;;
31978;SDS011;18502;43.574;1.276;2023-07-08T02:11:43;11.32;;;5.47;;
31978;SDS011;18502;43.574;1.276;2023-07-08T02:14:09;10.07;;;6.22;;
31978;SDS011;18502;43.574;1.276;2023-07-08T02:16:35;12.45;;;5.93;;
31978;SDS011;18502;43.574;1.276;2023-07-08T02:19:00;13.48;;;6.22;;
31978;SDS011;18502;43.574;1.276;2023-07-08T02:21:26;16.17;;;6.32;;
31978;SDS011;18502;43.574;1.276;2023-07-08T02:23:55;11.65;;;6.18;;
31978;SDS011;18502;43.574;1.276;2023-07-08T02:26:21;19.63;;;6.70;;
31978;SDS011;18502;43.574;1.276;2023-07-08T02:28:47;14.18;;;8.05;;
31978;SDS011;18502;43.574;1.276;2023-07-08T02:31:13;12.63;;;7.70;;
31978;SDS011;18502;43.574;1.276;2023-07-08T02:33:39;10.63;;;7.03;;
31978;SDS011;18502;43.574;1.276;2023-07-08T02:36:04;14.00;;;6.68;;
31978;SDS011;18502;43.574;1.276;2023-07-08T02:38:30;15.70;;;6.57;;
31978;SDS011;18502;43.574;1.276;2023-07-08T02:40:56;14.23;;;6.72;;
31978;SDS011;18502;43.574;1.276;2023-07-08T02:43:22;13.07;;;7.25;;
31978;SDS011;18502;43.574;1.276;2023-07-08T02:45:49;13.07;;;7.13;;
31978;SDS011;18502;43.574;1.276;2023-07-08T02:48:16;13.18;;;6.70;;
31978;SDS011;18502;43.574;1.276;2023-07-08T02:50:45;12.77;;;6.88;;
31978;SDS011;18502;43.574;1.276;2023-07-08T02:53:11;14.32;;;5.82;;
31978;SDS011;18502;43.574;1.276;2023-07-08T02:55:38;14.63;;;6.72;;
31978;SDS011;18502;43.574;1.276;2023-07-08T02:58:04;12.45;;;7.40;;
31978;SDS011;18502;43.574;1.276;2023-07-08T03:00:30;14.20;;;7.25;;
31978;SDS011;18502;43.574;1.276;2023-07-08T03:02:55;17.75;;;8.43;;
31978;SDS011;18502;43.574;1.276;2023-07-08T03:05:21;16.15;;;7.15;;
31978;SDS011;18502;43.574;1.276;2023-07-08T03:07:46;17.90;;;7.75;;
31978;SDS011;18502;43.574;1.276;2023-07-08T03:10:12;13.75;;;7.63;;
31978;SDS011;18502;43.574;1.276;2023-07-08T03:12:38;12.00;;;6.82;;
31978;SDS011;18502;43.574;1.276;2023-07-08T03:15:04;17.45;;;7.15;;
31978;SDS011;18502;43.574;1.276;2023-07-08T03:17:30;14.38;;;8.32;;
31978;SDS011;18502;43.574;1.276;2023-07-08T03:19:56;11.88;;;6.65;;
31978;SDS011;18502;43.574;1.276;2023-07-08T03:22:21;16.02;;;8.60;;
31978;SDS011;18502;43.574;1.276;2023-07-08T03:24:47;15.98;;;7.75;;
31978;SDS011;18502;43.574;1.276;2023-07-08T03:27:13;14.80;;;7.28;;
31978;SDS011;18502;43.574;1.276;2023-07-08T03:29:39;13.93;;;7.57;;
31978;SDS011;18502;43.574;1.276;2023-07-08T03:32:07;14.10;;;7.13;;
31978;SDS011;18502;43.574;1.276;2023-07-08T03:34:35;15.77;;;7.65;;
31978;SDS011;18502;43.574;1.276;2023-07-08T03:37:00;13.05;;;7.00;;
31978;SDS011;18502;43.574;1.276;2023-07-08T03:39:26;18.50;;;8.15;;
31978;SDS011;18502;43.574;1.276;2023-07-08T03:41:52;15.40;;;7.43;;
31978;SDS011;18502;43.574;1.276;2023-07-08T03:44:18;13.18;;;7.30;;
31978;SDS011;18502;43.574;1.276;2023-07-08T03:46:47;14.88;;;6.85;;
31978;SDS011;18502;43.574;1.276;2023-07-08T03:49:17;13.10;;;7.05;;
31978;SDS011;18502;43.574;1.276;2023-07-08T03:54:13;12.45;;;6.03;;
31978;SDS011;18502;43.574;1.276;2023-07-08T03:56:40;13.40;;;7.93;;
31978;SDS011;18502;43.574;1.276;2023-07-08T03:59:05;15.57;;;7.43;;
31978;SDS011;18502;43.574;1.276;2023-07-08T04:01:31;11.90;;;7.13;;
31978;SDS011;18502;43.574;1.276;2023-07-08T04:03:57;12.98;;;6.80;;
31978;SDS011;18502;43.574;1.276;2023-07-08T04:06:24;13.05;;;6.40;;
31978;SDS011;18502;43.574;1.276;2023-07-08T04:08:50;15.05;;;7.13;;
31978;SDS011;18502;43.574;1.276;2023-07-08T04:11:17;17.05;;;7.82;;
31978;SDS011;18502;43.574;1.276;2023-07-08T04:13:45;13.00;;;6.95;;
31978;SDS011;18502;43.574;1.276;2023-07-08T04:16:14;14.25;;;7.15;;
31978;SDS011;18502;43.574;1.276;2023-07-08T04:18:55;11.73;;;7.00;;
31978;SDS011;18502;43.574;1.276;2023-07-08T04:21:21;13.05;;;8.10;;
31978;SDS011;18502;43.574;1.276;2023-07-08T04:23:48;17.40;;;7.95;;
31978;SDS011;18502;43.574;1.276;2023-07-08T04:26:14;13.63;;;8.05;;
31978;SDS011;18502;43.574;1.276;2023-07-08T04:28:41;16.50;;;8.20;;
31978;SDS011;18502;43.574;1.276;2023-07-08T04:31:07;11.43;;;7.85;;
31978;SDS011;18502;43.574;1.276;2023-07-08T04:33:33;13.68;;;6.82;;
31978;SDS011;18502;43.574;1.276;2023-07-08T04:35:58;12.10;;;7.53;;
31978;SDS011;18502;43.574;1.276;2023-07-08T04:38:25;17.27;;;8.05;;
31978;SDS011;18502;43.574;1.276;2023-07-08T04:40:52;16.55;;;7.38;;
31978;SDS011;18502;43.574;1.276;2023-07-08T04:43:18;18.70;;;7.72;;
31978;SDS011;18502;43.574;1.276;2023-07-08T04:45:47;14.60;;;6.70;;
31978;SDS011;18502;43.574;1.276;2023-07-08T04:48:18;10.73;;;6.38;;
31978;SDS011;18502;43.574;1.276;2023-07-08T04:50:47;12.15;;;7.00;;
31978;SDS011;18502;43.574;1.276;2023-07-08T04:53:16;12.50;;;6.72;;
31978;SDS011;18502;43.574;1.276;2023-07-08T04:55:43;17.30;;;6.72;;
31978;SDS011;18502;43.574;1.276;2023-07-08T04:58:11;9.38;;;5.85;;
31978;SDS011;18502;43.574;1.276;2023-07-08T05:00:37;13.85;;;6.53;;
31978;SDS011;18502;43.574;1.276;2023-07-08T05:03:03;17.65;;;7.55;;
31978;SDS011;18502;43.574;1.276;2023-07-08T05:05:29;12.90;;;6.82;;
31978;SDS011;18502;43.574;1.276;2023-07-08T05:07:54;12.18;;;6.28;;
31978;SDS011;18502;43.574;1.276;2023-07-08T05:10:20;10.27;;;6.07;;
31978;SDS011;18502;43.574;1.276;2023-07-08T05:12:47;14.25;;;6.22;;
31978;SDS011;18502;43.574;1.276;2023-07-08T05:15:13;16.08;;;6.70;;
31978;SDS011;18502;43.574;1.276;2023-07-08T05:17:39;8.98;;;6.43;;
31978;SDS011;18502;43.574;1.276;2023-07-08T05:20:06;15.15;;;6.15;;
31978;SDS011;18502;43.574;1.276;2023-07-08T05:22:33;11.45;;;6.30;;
31978;SDS011;18502;43.574;1.276;2023-07-08T05:24:59;15.55;;;6.43;;
31978;SDS011;18502;43.574;1.276;2023-07-08T05:27:25;17.67;;;6.60;;
31978;SDS011;18502;43.574;1.276;2023-07-08T05:29:51;14.43;;;6.22;;
31978;SDS011;18502;43.574;1.276;2023-07-08T05:32:17;14.07;;;6.22;;
31978;SDS011;18502;43.574;1.276;2023-07-08T05:34:43;13.65;;;6.80;;
31978;SDS011;18502;43.574;1.276;2023-07-08T05:37:10;16.90;;;8.27;;
31978;SDS011;18502;43.574;1.276;2023-07-08T05:39:36;14.27;;;7.00;;
31978;SDS011;18502;43.574;1.276;2023-07-08T05:42:02;12.70;;;6.75;;
31978;SDS011;18502;43.574;1.276;2023-07-08T05:44:28;16.85;;;7.60;;
31978;SDS011;18502;43.574;1.276;2023-07-08T05:46:54;13.85;;;7.20;;
31978;SDS011;18502;43.574;1.276;2023-07-08T05:49:19;12.63;;;7.07;;
31978;SDS011;18502;43.574;1.276;2023-07-08T05:51:45;14.43;;;6.68;;
31978;SDS011;18502;43.574;1.276;2023-07-08T05:54:11;14.93;;;6.75;;
31978;SDS011;18502;43.574;1.276;2023-07-08T05:56:37;11.15;;;7.18;;
31978;SDS011;18502;43.574;1.276;2023-07-08T05:59:03;15.98;;;6.47;;
31978;SDS011;18502;43.574;1.276;2023-07-08T06:01:29;18.35;;;7.50;;
31978;SDS011;18502;43.574;1.276;2023-07-08T06:03:55;15.48;;;7.68;;
31978;SDS011;18502;43.574;1.276;2023-07-08T06:06:27;22.08;;;7.38;;
31978;SDS011;18502;43.574;1.276;2023-07-08T06:08:53;14.27;;;6.78;;
31978;SDS011;18502;43.574;1.276;2023-07-08T06:11:19;14.18;;;6.75;;
31978;SDS011;18502;43.574;1.276;2023-07-08T06:13:46;17.75;;;8.07;;
31978;SDS011;18502;43.574;1.276;2023-07-08T06:16:12;18.10;;;8.38;;
31978;SDS011;18502;43.574;1.276;2023-07-08T06:18:38;13.32;;;7.30;;
31978;SDS011;18502;43.574;1.276;2023-07-08T06:21:05;12.77;;;7.15;;
31978;SDS011;18502;43.574;1.276;2023-07-08T06:23:31;15.70;;;7.75;;
31978;SDS011;18502;43.574;1.276;2023-07-08T06:25:56;14.25;;;7.45;;
31978;SDS011;18502;43.574;1.276;2023-07-08T06:28:22;15.25;;;8.00;;
31978;SDS011;18502;43.574;1.276;2023-07-08T06:30:48;10.30;;;7.15;;
31978;SDS011;18502;43.574;1.276;2023-07-08T06:33:14;18.05;;;8.93;;
31978;SDS011;18502;43.574;1.276;2023-07-08T06:35:40;12.27;;;7.97;;
31978;SDS011;18502;43.574;1.276;2023-07-08T06:38:06;17.95;;;7.85;;
31978;SDS011;18502;43.574;1.276;2023-07-08T06:40:33;13.07;;;8.32;;
31978;SDS011;18502;43.574;1.276;2023-07-08T06:42:59;12.80;;;7.85;;
31978;SDS011;18502;43.574;1.276;2023-07-08T06:45:25;15.75;;;7.38;;
31978;SDS011;18502;43.574;1.276;2023-07-08T06:47:51;18.77;;;8.07;;
31978;SDS011;18502;43.574;1.276;2023-07-08T06:50:17;14.23;;;6.93;;
31978;SDS011;18502;43.574;1.276;2023-07-08T06:52:42;11.98;;;7.63;;
31978;SDS011;18502;43.574;1.276;2023-07-08T06:55:09;15.02;;;7.55;;
31978;SDS011;18502;43.574;1.276;2023-07-08T06:57:35;11.50;;;6.97;;
31978;SDS011;18502;43.574;1.276;2023-07-08T07:00:03;13.25;;;6.78;;
31978;SDS011;18502;43.574;1.276;2023-07-08T07:02:32;12.98;;;7.25;;
31978;SDS011;18502;43.574;1.276;2023-07-08T07:04:58;11.90;;;7.10;;
31978;SDS011;18502;43.574;1.276;2023-07-08T07:07:23;12.73;;;6.70;;
31978;SDS011;18502;43.574;1.276;2023-07-08T07:09:49;12.27;;;7.10;;
31978;SDS011;18502;43.574;1.276;2023-07-08T07:12:15;13.35;;;6.07;;
31978;SDS011;18502;43.574;1.276;2023-07-08T07:14:41;15.38;;;6.20;;
31978;SDS011;18502;43.574;1.276;2023-07-08T07:17:07;16.02;;;6.57;;
31978;SDS011;18502;43.574;1.276;2023-07-08T07:19:33;13.57;;;5.95;;
31978;SDS011;18502;43.574;1.276;2023-07-08T07:21:58;12.88;;;6.78;;
31978;SDS011;18502;43.574;1.276;2023-07-08T07:24:24;12.57;;;6.82;;
31978;SDS011;18502;43.574;1.276;2023-07-08T07:26:50;18.15;;;7.18;;
31978;SDS011;18502;43.574;1.276;2023-07-08T07:29:16;11.98;;;6.60;;
31978;SDS011;18502;43.574;1.276;2023-07-08T07:31:42;15.27;;;6.15;;
31978;SDS011;18502;43.574;1.276;2023-07-08T07:34:08;9.63;;;5.32;;
31978;SDS011;18502;43.574;1.276;2023-07-08T07:36:34;14.13;;;5.72;;
31978;SDS011;18502;43.574;1.276;2023-07-08T07:39:00;10.88;;;5.35;;
31978;SDS011;18502;43.574;1.276;2023-07-08T07:41:25;16.05;;;6.10;;
31978;SDS011;18502;43.574;1.276;2023-07-08T07:43:51;12.82;;;5.38;;
31978;SDS011;18502;43.574;1.276;2023-07-08T07:46:17;12.48;;;5.55;;
31978;SDS011;18502;43.574;1.276;2023-07-08T07:48:43;12.85;;;5.85;;
31978;SDS011;18502;43.574;1.276;2023-07-08T07:51:08;12.68;;;5.55;;
31978;SDS011;18502;43.574;1.276;2023-07-08T07:53:36;11.15;;;5.43;;
31978;SDS011;18502;43.574;1.276;2023-07-08T07:56:02;11.38;;;4.78;;
31978;SDS011;18502;43.574;1.276;2023-07-08T07:58:29;12.65;;;5.75;;
31978;SDS011;18502;43.574;1.276;2023-07-08T08:00:55;15.02;;;5.93;;
31978;SDS011;18502;43.574;1.276;2023-07-08T08:03:21;17.17;;;7.00;;
31978;SDS011;18502;43.574;1.276;2023-07-08T08:05:47;11.10;;;5.93;;
31978;SDS011;18502;43.574;1.276;2023-07-08T08:08:13;12.65;;;6.05;;
31978;SDS011;18502;43.574;1.276;2023-07-08T08:10:39;13.60;;;5.53;;
31978;SDS011;18502;43.574;1.276;2023-07-08T08:13:04;14.90;;;6.13;;
31978;SDS011;18502;43.574;1.276;2023-07-08T08:15:30;9.75;;;5.13;;
31978;SDS011;18502;43.574;1.276;2023-07-08T08:17:55;13.77;;;5.60;;
31978;SDS011;18502;43.574;1.276;2023-07-08T08:20:23;12.25;;;5.75;;
31978;SDS011;18502;43.574;1.276;2023-07-08T08:22:50;16.98;;;5.90;;
31978;SDS011;18502;43.574;1.276;2023-07-08T08:25:16;13.10;;;5.53;;
31978;SDS011;18502;43.574;1.276;2023-07-08T08:27:44;9.77;;;5.18;;
31978;SDS011;18502;43.574;1.276;2023-07-08T08:30:10;13.32;;;5.47;;
31978;SDS011;18502;43.574;1.276;2023-07-08T08:32:36;15.75;;;6.07;;
31978;SDS011;18502;43.574;1.276;2023-07-08T08:35:02;11.00;;;5.60;;
31978;SDS011;18502;43.574;1.276;2023-07-08T08:37:28;11.63;;;5.13;;
31978;SDS011;18502;43.574;1.276;2023-07-08T08:39:54;9.90;;;4.82;;
31978;SDS011;18502;43.574;1.276;2023-07-08T08:42:23;14.57;;;6.05;;
31978;SDS011;18502;43.574;1.276;2023-07-08T08:45:05;12.25;;;5.13;;
31978;SDS011;18502;43.574;1.276;2023-07-08T08:47:40;12.52;;;4.85;;
31978;SDS011;18502;43.574;1.276;2023-07-08T08:50:20;12.45;;;4.70;;
31978;SDS011;18502;43.574;1.276;2023-07-08T08:52:54;10.63;;;5.43;;
31978;SDS011;18502;43.574;1.276;2023-07-08T08:55:22;13.98;;;5.50;;
31978;SDS011;18502;43.574;1.276;2023-07-08T09:00:23;12.00;;;5.78;;
31978;SDS011;18502;43.574;1.276;2023-07-08T09:03:04;15.27;;;6.32;;
31978;SDS011;18502;43.574;1.276;2023-07-08T09:05:36;11.13;;;4.60;;
31978;SDS011;18502;43.574;1.276;2023-07-08T09:08:16;12.18;;;5.13;;
31978;SDS011;18502;43.574;1.276;2023-07-08T09:13:49;10.40;;;5.03;;
31978;SDS011;18502;43.574;1.276;2023-07-08T09:19:37;14.82;;;5.13;;
31978;SDS011;18502;43.574;1.276;2023-07-08T09:22:14;9.00;;;5.43;;
31978;SDS011;18502;43.574;1.276;2023-07-08T09:27:18;9.65;;;4.78;;
31978;SDS011;18502;43.574;1.276;2023-07-08T09:29:45;11.25;;;4.72;;
31978;SDS011;18502;43.574;1.276;2023-07-08T09:32:18;12.65;;;4.93;;
31978;SDS011;18502;43.574;1.276;2023-07-08T09:34:50;19.63;;;5.97;;
31978;SDS011;18502;43.574;1.276;2023-07-08T09:37:32;12.00;;;5.00;;
31978;SDS011;18502;43.574;1.276;2023-07-08T09:39:59;10.70;;;4.95;;
31978;SDS011;18502;43.574;1.276;2023-07-08T09:42:32;9.80;;;4.75;;
31978;SDS011;18502;43.574;1.276;2023-07-08T09:45:10;13.10;;;5.13;;
31978;SDS011;18502;43.574;1.276;2023-07-08T09:47:38;7.72;;;5.00;;
31978;SDS011;18502;43.574;1.276;2023-07-08T09:52:57;9.80;;;5.38;;
31978;SDS011;18502;43.574;1.276;2023-07-08T09:55:26;10.05;;;4.72;;
31978;SDS011;18502;43.574;1.276;2023-07-08T09:57:52;10.20;;;4.65;;
31978;SDS011;18502;43.574;1.276;2023-07-08T10:00:27;11.65;;;4.88;;
31978;SDS011;18502;43.574;1.276;2023-07-08T10:03:00;14.27;;;5.80;;
31978;SDS011;18502;43.574;1.276;2023-07-08T10:05:38;8.65;;;5.15;;
31978;SDS011;18502;43.574;1.276;2023-07-08T10:10:47;8.30;;;4.70;;
31978;SDS011;18502;43.574;1.276;2023-07-08T10:18:38;12.48;;;4.75;;
31978;SDS011;18502;43.574;1.276;2023-07-08T10:23:57;10.30;;;4.80;;
31978;SDS011;18502;43.574;1.276;2023-07-08T10:26:30;8.68;;;4.60;;
31978;SDS011;18502;43.574;1.276;2023-07-08T10:34:49;14.70;;;5.65;;
31978;SDS011;18502;43.574;1.276;2023-07-08T10:48:17;13.25;;;5.38;;
31978;SDS011;18502;43.574;1.276;2023-07-08T10:56:25;11.90;;;5.35;;
31978;SDS011;18502;43.574;1.276;2023-07-08T11:05:28;12.18;;;4.85;;
31978;SDS011;18502;43.574;1.276;2023-07-08T11:07:41;10.85;;;4.70;;
31978;SDS011;18502;43.574;1.276;2023-07-08T11:10:18;13.73;;;5.32;;
31978;SDS011;18502;43.574;1.276;2023-07-08T11:13:13;9.65;;;4.82;;
31978;SDS011;18502;43.574;1.276;2023-07-08T11:15:45;17.80;;;4.87;;
31978;SDS011;18502;43.574;1.276;2023-07-08T11:18:38;12.20;;;4.97;;
31978;SDS011;18502;43.574;1.276;2023-07-08T11:29:25;9.65;;;4.38;;
31978;SDS011;18502;43.574;1.276;2023-07-08T11:31:54;9.80;;;4.65;;
31978;SDS011;18502;43.574;1.276;2023-07-08T11:34:20;10.65;;;4.43;;
31978;SDS011;18502;43.574;1.276;2023-07-08T11:36:48;9.18;;;4.75;;
31978;SDS011;18502;43.574;1.276;2023-07-08T11:44:59;11.38;;;5.28;;
31978;SDS011;18502;43.574;1.276;2023-07-08T11:47:46;12.43;;;4.55;;
31978;SDS011;18502;43.574;1.276;2023-07-08T11:50:22;16.77;;;6.00;;
31978;SDS011;18502;43.574;1.276;2023-07-08T11:53:10;11.57;;;4.28;;
31978;SDS011;18502;43.574;1.276;2023-07-08T11:58:05;12.48;;;5.05;;
31978;SDS011;18502;43.574;1.276;2023-07-08T12:00:50;8.27;;;4.28;;
31978;SDS011;18502;43.574;1.276;2023-07-08T12:03:21;8.38;;;4.07;;
31978;SDS011;18502;43.574;1.276;2023-07-08T12:05:47;11.27;;;4.72;;
31978;SDS011;18502;43.574;1.276;2023-07-08T12:08:14;11.80;;;4.30;;
31978;SDS011;18502;43.574;1.276;2023-07-08T12:11:00;6.82;;;4.60;;
31978;SDS011;18502;43.574;1.276;2023-07-08T12:13:26;10.50;;;4.70;;
31978;SDS011;18502;43.574;1.276;2023-07-08T12:15:52;12.88;;;4.28;;
31978;SDS011;18502;43.574;1.276;2023-07-08T12:20:54;10.20;;;3.85;;
31978;SDS011;18502;43.574;1.276;2023-07-08T12:23:22;8.70;;;4.55;;
31978;SDS011;18502;43.574;1.276;2023-07-08T12:25:50;11.73;;;5.50;;
31978;SDS011;18502;43.574;1.276;2023-07-08T12:28:17;10.82;;;4.88;;
31978;SDS011;18502;43.574;1.276;2023-07-08T12:30:44;11.27;;;4.70;;
31978;SDS011;18502;43.574;1.276;2023-07-08T12:33:14;6.72;;;3.88;;
31978;SDS011;18502;43.574;1.276;2023-07-08T12:35:44;12.02;;;4.60;;
31978;SDS011;18502;43.574;1.276;2023-07-08T12:38:18;9.23;;;4.18;;
31978;SDS011;18502;43.574;1.276;2023-07-08T12:40:59;10.07;;;4.40;;
31978;SDS011;18502;43.574;1.276;2023-07-08T12:43:36;9.73;;;4.63;;
31978;SDS011;18502;43.574;1.276;2023-07-08T12:46:02;7.90;;;4.70;;
31978;SDS011;18502;43.574;1.276;2023-07-08T12:48:34;11.60;;;4.97;;
31978;SDS011;18502;43.574;1.276;2023-07-08T12:51:05;12.90;;;4.03;;
31978;SDS011;18502;43.574;1.276;2023-07-08T12:53:34;9.35;;;4.15;;
31978;SDS011;18502;43.574;1.276;2023-07-08T12:56:01;7.55;;;4.22;;
31978;SDS011;18502;43.574;1.276;2023-07-08T12:58:28;8.73;;;4.47;;
31978;SDS011;18502;43.574;1.276;2023-07-08T13:01:00;10.43;;;4.40;;
31978;SDS011;18502;43.574;1.276;2023-07-08T13:03:31;8.52;;;4.15;;
31978;SDS011;18502;43.574;1.276;2023-07-08T13:06:01;8.32;;;4.65;;
31978;SDS011;18502;43.574;1.276;2023-07-08T13:08:29;9.88;;;4.38;;
31978;SDS011;18502;43.574;1.276;2023-07-08T13:10:59;11.38;;;4.63;;
31978;SDS011;18502;43.574;1.276;2023-07-08T13:13:27;7.50;;;3.92;;
31978;SDS011;18502;43.574;1.276;2023-07-08T13:15:56;11.52;;;3.80;;
31978;SDS011;18502;43.574;1.276;2023-07-08T13:18:33;9.32;;;4.38;;
31978;SDS011;18502;43.574;1.276;2023-07-08T13:21:01;7.35;;;4.38;;
31978;SDS011;18502;43.574;1.276;2023-07-08T13:23:29;9.10;;;4.40;;
31978;SDS011;18502;43.574;1.276;2023-07-08T13:25:55;8.85;;;4.10;;
31978;SDS011;18502;43.574;1.276;2023-07-08T13:28:28;8.20;;;4.60;;
31978;SDS011;18502;43.574;1.276;2023-07-08T13:31:01;7.25;;;4.93;;
31978;SDS011;18502;43.574;1.276;2023-07-08T13:33:36;9.68;;;4.18;;
31978;SDS011;18502;43.574;1.276;2023-07-08T13:36:03;8.15;;;4.10;;
31978;SDS011;18502;43.574;1.276;2023-07-08T13:38:33;6.93;;;3.65;;
31978;SDS011;18502;43.574;1.276;2023-07-08T13:41:04;6.82;;;3.22;;
31978;SDS011;18502;43.574;1.276;2023-07-08T13:43:33;6.25;;;3.92;;
31978;SDS011;18502;43.574;1.276;2023-07-08T13:46:00;7.95;;;3.97;;
31978;SDS011;18502;43.574;1.276;2023-07-08T13:48:28;6.28;;;4.05;;
31978;SDS011;18502;43.574;1.276;2023-07-08T13:51:01;7.60;;;3.55;;
31978;SDS011;18502;43.574;1.276;2023-07-08T13:53:38;5.93;;;3.65;;
31978;SDS011;18502;43.574;1.276;2023-07-08T13:56:19;8.55;;;3.70;;
31978;SDS011;18502;43.574;1.276;2023-07-08T13:58:48;5.93;;;3.35;;
31978;SDS011;18502;43.574;1.276;2023-07-08T14:01:20;7.22;;;3.78;;
31978;SDS011;18502;43.574;1.276;2023-07-08T14:03:48;7.88;;;4.00;;
31978;SDS011;18502;43.574;1.276;2023-07-08T14:06:15;8.77;;;4.07;;
31978;SDS011;18502;43.574;1.276;2023-07-08T14:08:45;7.28;;;3.65;;
31978;SDS011;18502;43.574;1.276;2023-07-08T14:11:11;9.45;;;4.22;;
31978;SDS011;18502;43.574;1.276;2023-07-08T14:13:36;9.77;;;3.78;;
31978;SDS011;18502;43.574;1.276;2023-07-08T14:16:02;6.20;;;3.58;;
31978;SDS011;18502;43.574;1.276;2023-07-08T14:18:33;8.98;;;4.10;;
31978;SDS011;18502;43.574;1.276;2023-07-08T14:20:59;6.43;;;3.67;;
31978;SDS011;18502;43.574;1.276;2023-07-08T14:23:24;6.50;;;4.43;;
31978;SDS011;18502;43.574;1.276;2023-07-08T14:25:50;7.65;;;3.35;;
31978;SDS011;18502;43.574;1.276;2023-07-08T14:28:16;7.30;;;3.63;;
31978;SDS011;18502;43.574;1.276;2023-07-08T14:30:43;7.47;;;4.30;;
31978;SDS011;18502;43.574;1.276;2023-07-08T14:33:12;11.82;;;4.10;;
31978;SDS011;18502;43.574;1.276;2023-07-08T14:35:38;7.22;;;3.80;;
31978;SDS011;18502;43.574;1.276;2023-07-08T14:38:11;7.57;;;3.63;;
31978;SDS011;18502;43.574;1.276;2023-07-08T14:40:38;6.40;;;3.38;;
31978;SDS011;18502;43.574;1.276;2023-07-08T14:45:48;7.20;;;3.87;;
31978;SDS011;18502;43.574;1.276;2023-07-08T14:48:15;6.28;;;3.83;;
31978;SDS011;18502;43.574;1.276;2023-07-08T14:50:41;7.65;;;3.58;;
31978;SDS011;18502;43.574;1.276;2023-07-08T14:53:08;8.35;;;3.72;;
31978;SDS011;18502;43.574;1.276;2023-07-08T14:55:34;8.10;;;4.50;;
31978;SDS011;18502;43.574;1.276;2023-07-08T14:58:00;9.50;;;4.82;;
31978;SDS011;18502;43.574;1.276;2023-07-08T15:00:28;12.05;;;4.20;;
31978;SDS011;18502;43.574;1.276;2023-07-08T15:02:53;7.88;;;4.15;;
31978;SDS011;18502;43.574;1.276;2023-07-08T15:05:23;6.03;;;3.10;;
31978;SDS011;18502;43.574;1.276;2023-07-08T15:07:54;8.07;;;3.92;;
31978;SDS011;18502;43.574;1.276;2023-07-08T15:12:52;5.65;;;3.58;;
31978;SDS011;18502;43.574;1.276;2023-07-08T15:15:39;6.28;;;3.72;;
31978;SDS011;18502;43.574;1.276;2023-07-08T15:18:11;6.18;;;3.88;;
31978;SDS011;18502;43.574;1.276;2023-07-08T15:20:38;5.70;;;3.60;;
31978;SDS011;18502;43.574;1.276;2023-07-08T15:23:04;6.15;;;3.58;;
31978;SDS011;18502;43.574;1.276;2023-07-08T15:25:30;6.35;;;3.70;;
31978;SDS011;18502;43.574;1.276;2023-07-08T15:27:59;6.15;;;3.20;;
31978;SDS011;18502;43.574;1.276;2023-07-08T15:30:27;9.25;;;3.50;;
31978;SDS011;18502;43.574;1.276;2023-07-08T15:32:54;7.50;;;3.55;;
31978;SDS011;18502;43.574;1.276;2023-07-08T15:35:21;7.97;;;4.28;;
31978;SDS011;18502;43.574;1.276;2023-07-08T15:37:58;5.95;;;3.67;;
31978;SDS011;18502;43.574;1.276;2023-07-08T15:40:27;6.93;;;3.55;;
31978;SDS011;18502;43.574;1.276;2023-07-08T15:42:55;6.03;;;3.83;;
31978;SDS011;18502;43.574;1.276;2023-07-08T15:45:24;6.40;;;4.22;;
31978;SDS011;18502;43.574;1.276;2023-07-08T15:47:54;7.03;;;3.80;;
31978;SDS011;18502;43.574;1.276;2023-07-08T15:50:21;6.57;;;3.78;;
31978;SDS011;18502;43.574;1.276;2023-07-08T15:52:49;9.38;;;3.80;;
31978;SDS011;18502;43.574;1.276;2023-07-08T15:55:17;8.18;;;4.00;;
31978;SDS011;18502;43.574;1.276;2023-07-08T15:57:52;6.28;;;4.15;;
31978;SDS011;18502;43.574;1.276;2023-07-08T16:00:24;6.80;;;3.70;;
31978;SDS011;18502;43.574;1.276;2023-07-08T16:02:54;7.22;;;3.65;;
31978;SDS011;18502;43.574;1.276;2023-07-08T16:05:24;5.93;;;3.67;;
31978;SDS011;18502;43.574;1.276;2023-07-08T16:07:53;5.95;;;3.58;;
31978;SDS011;18502;43.574;1.276;2023-07-08T16:10:20;8.05;;;4.30;;
31978;SDS011;18502;43.574;1.276;2023-07-08T16:12:49;9.57;;;4.22;;
31978;SDS011;18502;43.574;1.276;2023-07-08T16:15:18;10.48;;;3.83;;